createdAt,value
2023-05-15T00:02:10.543Z,663.15
2023-05-15T00:04:38.342Z,654.78
2023-05-15T00:07:06.371Z,658.10
2023-05-15T00:09:33.889Z,647.85
2023-05-15T00:12:01.921Z,657.90
2023-05-15T00:14:29.479Z,657.40
2023-05-15T00:16:57.169Z,648.28
2023-05-15T00:19:25.234Z,654.40
2023-05-15T00:21:53.974Z,655.38
2023-05-15T00:24:22.572Z,652.25
2023-05-15T00:26:50.389Z,652.22
2023-05-15T00:29:17.942Z,656.87
2023-05-15T00:31:45.945Z,636.13
2023-05-15T00:34:13.513Z,635.25
2023-05-15T00:36:41.167Z,641.15
2023-05-15T00:39:08.641Z,647.40
2023-05-15T00:41:37.360Z,646.30
2023-05-15T00:44:07.022Z,645.75
2023-05-15T00:46:36.943Z,640.25
2023-05-15T00:49:06.756Z,641.50
2023-05-15T00:51:35.696Z,628.65
2023-05-15T00:54:03.852Z,634.03
2023-05-15T00:56:33.549Z,637.40
2023-05-15T00:59:04.073Z,632.78
2023-05-15T01:01:34.749Z,628.90
2023-05-15T01:04:04.360Z,627.38
2023-05-15T01:06:32.314Z,633.97
2023-05-15T01:09:04.218Z,632.53
2023-05-15T01:11:36.239Z,629.03
2023-05-15T01:14:06.375Z,615.58
2023-05-15T01:16:35.907Z,617.80
2023-05-15T01:19:05.270Z,623.53
2023-05-15T01:21:36.834Z,622.13
2023-05-15T01:24:25.897Z,616.00
2023-05-15T01:27:15.384Z,613.30
2023-05-15T01:30:02.090Z,620.97
2023-05-15T01:32:49.927Z,611.20
2023-05-15T01:35:33.013Z,616.08
2023-05-15T01:38:13.108Z,625.30
2023-05-15T01:40:41.930Z,614.88
2023-05-15T01:43:15.849Z,610.75
2023-05-15T01:45:43.660Z,620.78
2023-05-15T01:48:13.968Z,620.83
2023-05-15T01:50:45.289Z,624.47
2023-05-15T01:53:12.841Z,625.67
2023-05-15T01:55:41.816Z,628.05
2023-05-15T01:58:10.171Z,616.78
2023-05-15T02:00:38.830Z,624.35
2023-05-15T02:03:07.115Z,611.85
2023-05-15T02:05:35.428Z,616.75
2023-05-15T02:08:04.635Z,619.90
2023-05-15T02:10:34.229Z,616.15
2023-05-15T02:13:02.066Z,620.50
2023-05-15T02:15:30.678Z,623.78
2023-05-15T02:17:58.493Z,614.55
2023-05-15T02:20:26.024Z,620.13
2023-05-15T02:22:53.717Z,608.13
2023-05-15T02:25:34.827Z,609.70
2023-05-15T02:28:07.306Z,601.55
2023-05-15T02:30:46.238Z,608.70
2023-05-15T02:33:31.312Z,617.00
2023-05-15T02:36:19.922Z,613.42
2023-05-15T02:38:55.538Z,619.10
2023-05-15T02:41:23.863Z,616.70
2023-05-15T02:43:55.392Z,607.33
2023-05-15T02:46:25.501Z,608.45
2023-05-15T02:48:55.302Z,617.57
2023-05-15T02:51:23.236Z,607.97
2023-05-15T02:53:52.661Z,599.43
2023-05-15T02:56:20.872Z,596.33
2023-05-15T02:58:49.688Z,593.83
2023-05-15T03:01:18.358Z,598.40
2023-05-15T03:03:46.513Z,596.45
2023-05-15T03:06:14.586Z,592.20
2023-05-15T03:08:42.131Z,587.58
2023-05-15T03:11:09.643Z,588.13
2023-05-15T03:13:38.109Z,589.42
2023-05-15T03:16:06.445Z,581.03
2023-05-15T03:18:34.162Z,582.00
2023-05-15T03:21:01.731Z,594.60
2023-05-15T03:23:31.286Z,598.92
2023-05-15T03:25:59.000Z,594.35
2023-05-15T03:28:26.968Z,592.42
2023-05-15T03:30:54.506Z,595.33
2023-05-15T03:33:22.150Z,601.83
2023-05-15T03:35:51.224Z,603.72
2023-05-15T03:38:20.024Z,610.63
2023-05-15T03:40:50.869Z,605.78
2023-05-15T03:43:18.697Z,583.17
2023-05-15T03:45:49.647Z,583.30
2023-05-15T03:48:17.865Z,594.17
2023-05-15T03:50:46.790Z,601.20
2023-05-15T03:53:14.732Z,607.47
2023-05-15T03:55:42.389Z,613.53
2023-05-15T03:58:09.872Z,622.45
2023-05-15T04:00:37.874Z,614.63
2023-05-15T04:03:06.036Z,622.90
2023-05-15T04:05:34.127Z,623.67
2023-05-15T04:08:01.737Z,635.78
2023-05-15T04:10:29.498Z,633.25
2023-05-15T04:12:57.510Z,647.60
2023-05-15T04:15:28.700Z,637.45
2023-05-15T04:17:56.515Z,630.45
2023-05-15T04:20:25.174Z,622.15
2023-05-15T04:22:53.852Z,627.42
2023-05-15T04:25:21.426Z,624.35
2023-05-15T04:27:49.479Z,604.65
2023-05-15T04:30:17.326Z,604.15
2023-05-15T04:32:45.973Z,597.83
2023-05-15T04:35:15.511Z,599.90
2023-05-15T04:37:45.494Z,9.15
2023-05-15T04:40:15.093Z,14.45
2023-05-15T04:42:42.672Z,81.07
2023-05-15T04:45:10.356Z,9.30
2023-05-15T04:47:38.042Z,10.15
2023-05-15T04:50:06.868Z,9.55
2023-05-15T04:52:34.392Z,9.02
2023-05-15T04:55:02.276Z,8.48
2023-05-15T04:57:30.575Z,6.53
2023-05-15T04:59:58.559Z,10.93
2023-05-15T05:02:26.297Z,495.73
2023-05-15T05:04:53.888Z,509.80
2023-05-15T05:07:21.771Z,533.13
2023-05-15T05:09:49.378Z,550.38
2023-05-15T05:12:16.857Z,526.55
2023-05-15T05:14:44.993Z,534.58
2023-05-15T05:17:12.563Z,531.08
2023-05-15T05:19:40.606Z,530.13
2023-05-15T05:22:08.356Z,531.85
2023-05-15T05:24:37.548Z,527.05
2023-05-15T05:27:05.617Z,534.35
2023-05-15T05:29:34.399Z,537.17
2023-05-15T05:32:02.012Z,534.35
2023-05-15T05:34:29.606Z,538.80
2023-05-15T05:36:57.670Z,546.30
2023-05-15T05:39:25.658Z,550.42
2023-05-15T05:41:53.719Z,558.65
2023-05-15T05:44:21.339Z,566.20
2023-05-15T05:46:49.689Z,568.47
2023-05-15T05:49:17.198Z,603.45
2023-05-15T05:51:47.090Z,616.85
2023-05-15T05:54:15.583Z,613.95
2023-05-15T05:56:43.173Z,625.00
2023-05-15T05:59:10.915Z,634.70
2023-05-15T06:01:38.561Z,640.80
2023-05-15T06:04:06.191Z,632.20
2023-05-15T06:06:34.612Z,633.00
2023-05-15T06:09:04.124Z,635.35
2023-05-15T06:11:32.928Z,637.15
2023-05-15T06:14:00.784Z,649.35
2023-05-15T06:16:28.396Z,650.65
2023-05-15T06:18:56.440Z,704.78
2023-05-15T06:21:24.079Z,716.78
2023-05-15T06:23:51.733Z,725.47
2023-05-15T06:26:19.950Z,718.75
2023-05-15T06:28:47.468Z,726.33
2023-05-15T06:31:15.084Z,729.20
2023-05-15T06:33:42.595Z,729.60
2023-05-15T06:36:10.090Z,736.17
2023-05-15T06:38:37.867Z,743.00
2023-05-15T06:41:05.593Z,749.75
2023-05-15T06:43:33.766Z,750.17
2023-05-15T06:46:01.856Z,747.95
2023-05-15T06:48:29.753Z,747.40
2023-05-15T06:50:57.389Z,755.43
2023-05-15T06:53:25.431Z,758.70
2023-05-15T06:55:53.325Z,752.03
2023-05-15T06:58:21.442Z,753.95
2023-05-15T07:00:49.002Z,755.83
2023-05-15T07:03:16.856Z,763.15
2023-05-15T07:05:45.445Z,748.75
2023-05-15T07:08:13.439Z,756.20
2023-05-15T07:10:41.658Z,757.50
2023-05-15T07:13:09.684Z,764.15
2023-05-15T07:15:37.705Z,772.87
2023-05-15T07:18:06.343Z,781.47
2023-05-15T07:20:35.127Z,778.70
2023-05-15T07:23:03.576Z,764.70
2023-05-15T07:25:31.497Z,769.92
2023-05-15T07:27:58.947Z,760.75
2023-05-15T07:30:27.114Z,765.58
2023-05-15T07:32:55.079Z,778.65
2023-05-15T07:35:23.029Z,776.40
2023-05-15T07:37:50.839Z,780.75
2023-05-15T07:40:18.837Z,786.58
2023-05-15T07:42:47.093Z,790.60
2023-05-15T07:45:14.853Z,796.35
2023-05-15T07:47:49.039Z,773.92
2023-05-15T07:50:17.776Z,769.13
2023-05-15T07:52:45.743Z,767.45
2023-05-15T07:55:13.759Z,768.03
2023-05-15T07:57:41.531Z,770.08
2023-05-15T08:00:12.944Z,759.58
2023-05-15T08:02:42.657Z,761.40
2023-05-15T08:05:10.754Z,754.15
2023-05-15T08:07:38.681Z,760.28
2023-05-15T08:10:07.397Z,762.33
2023-05-15T08:12:35.392Z,766.53
2023-05-15T08:15:03.320Z,769.70
2023-05-15T08:17:31.281Z,788.90
2023-05-15T08:19:58.745Z,808.35
2023-05-15T08:22:26.716Z,821.15
2023-05-15T08:24:54.984Z,821.05
2023-05-15T08:27:22.700Z,832.28
2023-05-15T08:29:50.548Z,839.13
2023-05-15T08:32:18.857Z,848.97
2023-05-15T08:34:46.413Z,839.92
2023-05-15T08:37:14.305Z,845.97
2023-05-15T08:39:41.857Z,862.95
2023-05-15T08:42:19.975Z,872.80
2023-05-15T08:44:48.667Z,875.97
2023-05-15T08:47:16.791Z,835.38
2023-05-15T08:50:17.523Z,846.92
2023-05-15T08:52:47.480Z,859.47
2023-05-15T08:55:16.759Z,858.28
2023-05-15T08:57:45.677Z,869.50
2023-05-15T09:00:14.976Z,880.38
2023-05-15T09:02:43.283Z,859.63
2023-05-15T09:05:11.371Z,868.92
2023-05-15T09:07:41.799Z,873.35
2023-05-15T09:10:11.151Z,864.28
2023-05-15T09:12:43.576Z,861.70
2023-05-15T09:15:18.646Z,864.35
2023-05-15T09:17:46.405Z,873.83
2023-05-15T09:20:34.553Z,885.83
2023-05-15T09:23:04.572Z,894.55
2023-05-15T09:25:40.847Z,907.05
2023-05-15T09:28:10.751Z,908.13
2023-05-15T09:30:39.356Z,912.03
2023-05-15T09:33:07.234Z,910.88
2023-05-15T09:35:37.336Z,916.35
2023-05-15T09:38:10.612Z,925.10
2023-05-15T09:40:39.370Z,911.45
2023-05-15T09:43:08.076Z,922.13
2023-05-15T09:45:35.661Z,930.70
2023-05-15T09:48:08.619Z,935.58
2023-05-15T09:50:40.978Z,933.30
2023-05-15T09:53:13.219Z,936.65
2023-05-15T09:55:42.711Z,940.15
2023-05-15T09:58:11.836Z,933.67
2023-05-15T10:00:47.895Z,706.35
2023-05-15T10:03:20.080Z,940.55
2023-05-15T10:05:49.176Z,875.42
2023-05-15T10:08:27.233Z,719.00
2023-05-15T10:10:58.572Z,224.80
2023-05-15T10:13:27.418Z,30.05
2023-05-15T10:15:57.607Z,5.93
2023-05-15T10:18:30.562Z,5.85
2023-05-15T10:21:01.362Z,984.45
2023-05-15T10:23:31.444Z,999.90
2023-05-15T10:26:08.991Z,4.50
2023-05-15T10:28:38.048Z,5.57
2023-05-15T10:31:07.676Z,5.65
2023-05-15T10:33:37.505Z,35.92
2023-05-15T10:36:05.706Z,4.47
2023-05-15T10:38:34.723Z,5.75
2023-05-15T10:41:15.697Z,4.95
2023-05-15T10:43:46.685Z,4.50
2023-05-15T10:46:15.865Z,932.17
2023-05-15T10:48:43.866Z,84.55
2023-05-15T10:51:39.567Z,6.10
2023-05-15T10:54:10.163Z,216.13
2023-05-15T10:56:39.602Z,4.63
2023-05-15T10:59:09.663Z,4.65
2023-05-15T11:01:39.224Z,4.80
2023-05-15T11:04:19.322Z,209.65
2023-05-15T11:06:48.450Z,55.28
2023-05-15T11:09:22.089Z,711.15
2023-05-15T11:11:52.570Z,3.40
2023-05-15T11:14:20.871Z,3.97
2023-05-15T11:16:54.683Z,4.07
2023-05-15T11:19:22.484Z,973.88
2023-05-15T11:21:59.482Z,4.88
2023-05-15T11:24:49.331Z,4.60
2023-05-15T11:27:21.413Z,5.70
2023-05-15T11:30:22.205Z,752.33
2023-05-15T11:33:00.759Z,3.78
2023-05-15T11:35:43.301Z,517.25
2023-05-15T11:38:11.525Z,2.92
2023-05-15T11:40:58.610Z,2.83
2023-05-15T11:43:27.588Z,2.08
2023-05-15T11:46:05.875Z,994.38
2023-05-15T11:48:35.878Z,3.60
2023-05-15T11:51:04.451Z,958.55
2023-05-15T11:53:33.408Z,2.95
2023-05-15T11:56:00.978Z,2.77
2023-05-15T11:58:28.639Z,2.53
2023-05-15T12:00:58.231Z,602.85
2023-05-15T12:03:34.085Z,3.45
2023-05-15T12:06:02.981Z,3.47
2023-05-15T12:08:38.944Z,75.57
2023-05-15T12:11:06.529Z,3.25
2023-05-15T12:13:34.861Z,1.98
2023-05-15T12:16:04.008Z,19.35
2023-05-15T12:18:32.659Z,1.92
2023-05-15T12:21:00.496Z,1.88
2023-05-15T12:23:28.854Z,926.17
2023-05-15T12:26:01.006Z,1.98
2023-05-15T12:28:30.281Z,1.42
2023-05-15T12:30:58.713Z,2.30
2023-05-15T12:33:26.702Z,1.95
2023-05-15T12:35:58.956Z,591.30
2023-05-15T12:38:28.916Z,1.87
2023-05-15T12:40:57.253Z,2.13
2023-05-15T12:43:26.137Z,377.15
2023-05-15T12:45:55.361Z,809.92
2023-05-15T12:48:24.059Z,1.83
2023-05-15T12:50:51.746Z,1.67
2023-05-15T12:53:22.568Z,1.73
2023-05-15T12:55:53.584Z,1.98
2023-05-15T12:58:48.754Z,1.70
2023-05-15T13:01:17.717Z,1.45
2023-05-15T13:03:45.834Z,1.60
2023-05-15T13:06:13.536Z,1.20
2023-05-15T13:08:42.060Z,1.58
2023-05-15T13:11:16.730Z,0.93
2023-05-15T13:13:48.914Z,1.58
2023-05-15T13:16:26.064Z,126.10
2023-05-15T13:18:53.960Z,1.70
2023-05-15T13:21:21.838Z,2.50
2023-05-15T13:23:49.845Z,206.77
2023-05-15T13:26:17.876Z,1.65
2023-05-15T13:28:45.358Z,1.65
2023-05-15T13:31:12.954Z,155.93
2023-05-15T13:33:40.546Z,2.08
2023-05-15T13:36:08.919Z,1.75
2023-05-15T13:38:37.118Z,2.05
2023-05-15T13:41:05.441Z,1.45
2023-05-15T13:43:33.584Z,2.00
2023-05-15T13:46:01.591Z,2.03
2023-05-15T13:48:29.508Z,73.72
2023-05-15T13:50:57.408Z,87.75
2023-05-15T13:53:24.903Z,211.43
2023-05-15T13:55:53.381Z,281.10
2023-05-15T13:58:21.229Z,1.70
2023-05-15T14:00:48.840Z,201.27
2023-05-15T14:03:16.414Z,1.90
2023-05-15T14:05:44.522Z,1.00
2023-05-15T14:08:12.186Z,1.70
2023-05-15T14:10:39.743Z,1.25
2023-05-15T14:13:07.667Z,1.40
2023-05-15T14:15:35.144Z,188.05
2023-05-15T14:18:03.315Z,239.75
2023-05-15T14:20:30.900Z,392.35
2023-05-15T14:22:58.843Z,1.80
2023-05-15T14:25:26.391Z,523.97
2023-05-15T14:27:54.316Z,1.77
2023-05-15T14:30:22.035Z,1.80
2023-05-15T14:32:49.555Z,1.30
2023-05-15T14:35:17.291Z,1.38
2023-05-15T14:37:45.600Z,1.90
2023-05-15T14:40:13.509Z,1.60
2023-05-15T14:42:41.142Z,113.72
2023-05-15T14:45:09.709Z,250.88
2023-05-15T14:47:37.272Z,278.35
2023-05-15T14:50:05.711Z,1.40
2023-05-15T14:52:33.879Z,595.67
2023-05-15T14:55:09.274Z,1.40
2023-05-15T14:57:38.639Z,1.52
2023-05-15T15:00:07.349Z,1.80
2023-05-15T15:02:35.627Z,49.78
2023-05-15T15:05:04.535Z,216.80
2023-05-15T15:07:59.447Z,1.90
2023-05-15T15:10:27.870Z,1.73
2023-05-15T15:12:56.332Z,1.87
2023-05-15T15:15:24.789Z,1.55
2023-05-15T15:17:53.194Z,613.15
2023-05-15T15:20:21.929Z,1.47
2023-05-15T15:22:49.612Z,383.33
2023-05-15T15:25:18.030Z,1.60
2023-05-15T15:27:46.466Z,135.45
2023-05-15T15:30:15.418Z,1.10
2023-05-15T15:32:45.488Z,1.08
2023-05-15T15:35:13.850Z,1.17
2023-05-15T15:37:41.591Z,1.17
2023-05-15T15:40:09.786Z,0.80
2023-05-15T15:42:38.178Z,722.28
2023-05-15T15:45:06.863Z,0.98
2023-05-15T15:47:34.387Z,604.80
2023-05-15T15:50:02.987Z,0.90
2023-05-15T15:52:30.814Z,1.10
2023-05-15T15:54:58.718Z,79.63
2023-05-15T15:57:28.507Z,763.92
2023-05-15T15:59:56.440Z,928.10
2023-05-15T16:02:24.441Z,146.17
2023-05-15T16:04:52.038Z,696.30
2023-05-15T16:07:20.776Z,999.90
2023-05-15T16:09:59.878Z,999.90
2023-05-15T16:12:35.923Z,999.90
2023-05-15T16:15:17.503Z,973.83
2023-05-15T16:17:54.147Z,999.90
2023-05-15T16:20:22.897Z,999.90
2023-05-15T16:22:50.958Z,999.90
2023-05-15T16:25:18.953Z,999.90
2023-05-15T16:27:46.890Z,1.30
2023-05-15T16:30:14.579Z,1.00
2023-05-15T16:32:42.547Z,970.63
2023-05-15T16:35:10.212Z,1.35
2023-05-15T16:37:37.876Z,112.43
2023-05-15T16:40:07.044Z,1.20
2023-05-15T16:42:38.666Z,189.82
2023-05-15T16:45:07.662Z,8.30
2023-05-15T16:47:37.702Z,483.52
2023-05-15T16:50:08.797Z,939.92
2023-05-15T16:52:38.859Z,987.15
2023-05-15T16:55:07.241Z,971.75
2023-05-15T16:57:34.783Z,953.85
2023-05-15T17:00:02.875Z,934.38
2023-05-15T17:02:30.779Z,919.92
2023-05-15T17:04:59.029Z,930.88
2023-05-15T17:07:26.921Z,782.13
2023-05-15T17:09:54.954Z,913.47
2023-05-15T17:12:23.630Z,938.33
2023-05-15T17:14:51.287Z,943.90
2023-05-15T17:17:19.122Z,914.47
2023-05-15T17:19:46.818Z,927.43
2023-05-15T17:22:15.066Z,921.97
2023-05-15T17:27:18.484Z,922.72
2023-05-15T17:29:47.000Z,925.83
2023-05-15T17:32:16.952Z,930.42
2023-05-15T17:34:45.533Z,926.45
2023-05-15T17:37:13.613Z,917.10
2023-05-15T17:39:41.525Z,922.28
2023-05-15T17:42:09.166Z,920.25
2023-05-15T17:44:37.273Z,912.85
2023-05-15T17:47:05.314Z,884.15
2023-05-15T17:49:34.669Z,888.47
2023-05-15T17:52:02.683Z,897.15
2023-05-15T17:54:30.380Z,884.80
2023-05-15T17:56:57.854Z,879.42
2023-05-15T17:59:26.268Z,885.45
2023-05-15T18:01:54.760Z,889.65
2023-05-15T18:04:22.729Z,876.50
2023-05-15T18:06:51.520Z,884.38
2023-05-15T18:09:23.207Z,880.92
2023-05-15T18:11:52.679Z,882.55
2023-05-15T18:14:20.863Z,879.75
2023-05-15T18:16:48.358Z,886.47
2023-05-15T18:19:16.493Z,887.78
2023-05-15T18:21:44.081Z,883.37
2023-05-15T18:24:11.601Z,879.35
2023-05-15T18:26:39.156Z,879.70
2023-05-15T18:29:06.910Z,884.13
2023-05-15T18:31:34.890Z,886.13
2023-05-15T18:34:02.676Z,886.13
2023-05-15T18:36:30.902Z,884.63
2023-05-15T18:38:58.926Z,889.65
2023-05-15T18:41:27.181Z,883.15
2023-05-15T18:43:55.727Z,892.10
2023-05-15T18:46:25.766Z,894.50
2023-05-15T18:48:53.785Z,897.22
2023-05-15T18:51:21.783Z,894.88
2023-05-15T18:53:49.388Z,895.08
2023-05-15T18:56:16.923Z,897.92
2023-05-15T18:58:47.339Z,899.25
2023-05-15T19:01:15.021Z,900.55
2023-05-15T19:03:42.985Z,904.55
2023-05-15T19:06:11.620Z,897.28
2023-05-15T19:08:39.573Z,897.22
2023-05-15T19:11:08.842Z,894.75
2023-05-15T19:13:36.775Z,891.47
2023-05-15T19:16:06.152Z,891.63
2023-05-15T19:18:33.908Z,889.43
2023-05-15T19:21:02.040Z,890.87
2023-05-15T19:23:29.703Z,893.03
2023-05-15T19:25:57.678Z,892.40
2023-05-15T19:28:26.177Z,890.78
2023-05-15T19:30:54.058Z,888.08
2023-05-15T19:33:22.110Z,883.03
2023-05-15T19:35:49.739Z,884.92
2023-05-15T19:38:19.211Z,885.30
2023-05-15T19:40:46.998Z,883.67
2023-05-15T19:43:14.898Z,880.53
2023-05-15T19:45:43.871Z,883.03
2023-05-15T19:48:12.082Z,880.55
2023-05-15T19:50:40.144Z,882.78
2023-05-15T19:53:08.708Z,864.65
2023-05-15T19:55:36.264Z,843.90
2023-05-15T19:58:04.245Z,851.53
2023-05-15T20:00:32.487Z,878.00
2023-05-15T20:03:01.048Z,865.53
2023-05-15T20:05:29.558Z,873.13
2023-05-15T20:07:57.237Z,859.67
2023-05-15T20:10:25.550Z,859.03
2023-05-15T20:12:53.335Z,855.17
2023-05-15T20:15:21.240Z,849.43
2023-05-15T20:17:48.905Z,863.25
2023-05-15T20:20:17.804Z,847.63
2023-05-15T20:22:46.484Z,845.70
2023-05-15T20:25:15.173Z,847.40
2023-05-15T20:27:42.804Z,861.63
2023-05-15T20:30:11.862Z,855.43
2023-05-15T20:32:39.992Z,848.67
2023-05-15T20:35:09.141Z,856.10
2023-05-15T20:37:42.782Z,855.63
2023-05-15T20:40:15.736Z,853.37
2023-05-15T20:42:43.557Z,852.75
2023-05-15T20:45:11.452Z,856.47
2023-05-15T20:47:40.488Z,855.22
2023-05-15T20:50:12.877Z,849.43
2023-05-15T20:52:41.348Z,844.63
2023-05-15T20:55:16.654Z,839.22
2023-05-15T20:57:47.175Z,842.47
2023-05-15T21:00:17.201Z,840.40
2023-05-15T21:02:46.050Z,767.23
2023-05-15T21:05:14.830Z,767.80
2023-05-15T21:07:42.846Z,765.65
2023-05-15T21:10:11.615Z,816.92
2023-05-15T21:12:39.939Z,851.80
2023-05-15T21:15:08.034Z,814.65
2023-05-15T21:17:36.070Z,808.75
2023-05-15T21:20:05.000Z,804.13
2023-05-15T21:22:34.593Z,809.57
2023-05-15T21:25:02.220Z,294.90
2023-05-15T21:27:29.917Z,631.25
2023-05-15T21:29:57.478Z,632.50
2023-05-15T21:32:25.640Z,610.05
2023-05-15T21:34:53.545Z,571.70
2023-05-15T21:37:21.255Z,622.03
2023-05-15T21:39:49.307Z,603.97
2023-05-15T21:42:16.893Z,628.03
2023-05-15T21:44:46.478Z,627.03
2023-05-15T21:47:13.938Z,766.47
2023-05-15T21:49:41.836Z,767.33
2023-05-15T21:52:09.561Z,768.40
2023-05-15T21:54:37.088Z,767.03
2023-05-15T21:57:04.924Z,769.67
2023-05-15T21:59:32.433Z,764.37
2023-05-15T22:02:00.618Z,773.00
2023-05-15T22:04:30.243Z,774.60
2023-05-15T22:06:58.189Z,773.83
2023-05-15T22:09:26.029Z,768.75
2023-05-15T22:11:53.655Z,752.60
2023-05-15T22:14:21.716Z,770.10
2023-05-15T22:16:49.392Z,767.92
2023-05-15T22:19:31.519Z,759.40
2023-05-15T22:22:03.611Z,742.10
2023-05-15T22:24:31.235Z,761.58
2023-05-15T22:26:59.774Z,761.80
2023-05-15T22:29:27.897Z,767.50
2023-05-15T22:31:56.391Z,766.83
2023-05-15T22:34:25.944Z,772.58
2023-05-15T22:39:28.296Z,777.35
2023-05-15T22:41:56.033Z,780.13
2023-05-15T22:44:23.755Z,780.33
2023-05-15T22:46:51.611Z,784.42
2023-05-15T22:49:23.705Z,789.83
2023-05-15T22:51:55.927Z,794.70
2023-05-15T22:54:24.638Z,791.50
2023-05-15T22:56:53.065Z,790.87
2023-05-15T22:59:20.996Z,785.75
2023-05-15T23:01:49.357Z,782.22
2023-05-15T23:04:17.947Z,760.72
2023-05-15T23:06:45.801Z,750.50
2023-05-15T23:09:14.181Z,738.73
2023-05-15T23:11:42.423Z,731.42
2023-05-15T23:14:10.020Z,744.90
2023-05-15T23:16:37.756Z,738.20
2023-05-15T23:19:05.969Z,746.45
2023-05-15T23:21:33.949Z,752.15
2023-05-15T23:24:01.575Z,732.03
2023-05-15T23:26:29.776Z,746.83
2023-05-15T23:28:57.366Z,756.50
2023-05-15T23:31:26.194Z,770.80
2023-05-15T23:33:53.819Z,764.87
2023-05-15T23:36:21.557Z,767.60
2023-05-15T23:38:49.165Z,779.97
2023-05-15T23:41:17.383Z,771.47
2023-05-15T23:43:44.892Z,784.33
2023-05-15T23:46:12.510Z,774.83
2023-05-15T23:48:40.124Z,769.08
2023-05-15T23:51:08.016Z,778.38
2023-05-15T23:53:36.813Z,783.13
2023-05-15T23:56:05.195Z,777.03
2023-05-15T23:58:33.967Z,778.25
